createdAt,value
2018-07-16T00:00:47.010Z,2.23
2018-07-16T00:03:17.642Z,2.10
2018-07-16T00:05:47.476Z,2.37
2018-07-16T00:08:17.964Z,2.10
2018-07-16T00:10:51.897Z,2.00
2018-07-16T00:13:29.916Z,2.57
2018-07-16T00:16:00.622Z,2.20
2018-07-16T00:18:31.089Z,2.30
2018-07-16T00:21:00.482Z,1.90
2018-07-16T00:23:29.464Z,2.43
2018-07-16T00:25:59.281Z,2.27
2018-07-16T00:28:33.132Z,2.60
2018-07-16T00:31:04.053Z,2.30
2018-07-16T00:33:33.208Z,2.77
2018-07-16T00:36:05.166Z,2.30
2018-07-16T00:38:36.577Z,2.57
2018-07-16T00:41:05.515Z,2.67
2018-07-16T00:43:34.465Z,2.87
2018-07-16T00:46:04.047Z,2.63
2018-07-16T00:48:35.507Z,2.43
2018-07-16T00:51:05.987Z,2.00
2018-07-16T00:53:36.924Z,2.77
2018-07-16T00:56:09.152Z,3.23
2018-07-16T00:58:40.760Z,2.60
2018-07-16T01:01:09.936Z,3.00
2018-07-16T01:03:40.344Z,3.00
2018-07-16T01:06:09.807Z,2.77
2018-07-16T01:08:40.865Z,2.97
2018-07-16T01:11:16.523Z,3.03
2018-07-16T01:13:45.682Z,2.90
2018-07-16T01:16:16.379Z,2.60
2018-07-16T01:18:46.051Z,3.30
2018-07-16T01:21:17.246Z,3.30
2018-07-16T01:23:47.033Z,2.90
2018-07-16T01:26:18.686Z,3.23
2018-07-16T01:28:47.748Z,3.30
2018-07-16T01:31:17.148Z,3.23
2018-07-16T01:33:46.497Z,2.97
2018-07-16T01:36:19.453Z,2.90
2018-07-16T01:38:48.989Z,3.50
2018-07-16T01:41:18.993Z,3.60
2018-07-16T01:43:48.169Z,2.50
2018-07-16T01:46:17.577Z,3.00
2018-07-16T01:48:47.752Z,3.20
2018-07-16T01:51:18.870Z,2.93
2018-07-16T01:53:50.972Z,3.40
2018-07-16T01:56:21.374Z,3.17
2018-07-16T01:58:53.791Z,3.10
2018-07-16T02:01:23.995Z,3.33
2018-07-16T02:03:54.122Z,3.10
2018-07-16T02:06:23.891Z,2.90
2018-07-16T02:08:53.821Z,3.50
2018-07-16T02:11:23.666Z,4.00
2018-07-16T02:13:52.886Z,3.50
2018-07-16T02:16:22.063Z,3.33
2018-07-16T02:18:56.188Z,2.87
2018-07-16T02:21:26.037Z,3.30
2018-07-16T02:23:55.604Z,3.43
2018-07-16T02:26:26.285Z,4.10
2018-07-16T02:28:56.374Z,3.50
2018-07-16T02:31:29.656Z,3.43
2018-07-16T02:33:58.740Z,3.73
2018-07-16T02:36:27.810Z,3.63
2018-07-16T02:38:57.264Z,3.50
2018-07-16T02:41:26.728Z,4.00
2018-07-16T02:43:56.689Z,4.80
2018-07-16T02:46:26.949Z,3.37
2018-07-16T02:48:57.249Z,3.13
2018-07-16T02:51:27.302Z,3.67
2018-07-16T02:53:57.321Z,3.60
2018-07-16T02:56:26.546Z,4.70
2018-07-16T02:58:56.513Z,3.87
2018-07-16T03:01:26.400Z,4.30
2018-07-16T03:03:56.815Z,3.83
2018-07-16T03:06:27.728Z,4.10
2018-07-16T03:08:57.494Z,4.63
2018-07-16T03:11:30.058Z,4.30
2018-07-16T03:14:02.034Z,3.63
2018-07-16T03:16:35.009Z,4.77
2018-07-16T03:19:03.874Z,4.77
2018-07-16T03:21:34.145Z,4.50
2018-07-16T03:24:03.994Z,4.20
2018-07-16T03:26:35.445Z,4.80
2018-07-16T03:29:05.067Z,4.73
2018-07-16T03:31:34.911Z,5.10
2018-07-16T03:34:05.416Z,4.53
2018-07-16T03:36:35.155Z,4.80
2018-07-16T03:39:04.691Z,5.03
2018-07-16T03:41:34.434Z,4.47
2018-07-16T03:44:05.174Z,4.13
2018-07-16T03:46:34.822Z,5.07
2018-07-16T03:49:05.521Z,4.60
2018-07-16T03:51:36.093Z,4.60
2018-07-16T03:54:05.117Z,4.77
2018-07-16T03:56:33.715Z,5.50
2018-07-16T03:59:03.599Z,5.17
2018-07-16T04:01:33.808Z,5.10
2018-07-16T04:04:03.245Z,4.60
2018-07-16T04:06:33.033Z,5.40
2018-07-16T04:09:03.043Z,6.00
2018-07-16T04:11:32.999Z,4.77
2018-07-16T04:14:02.425Z,6.13
2018-07-16T04:16:33.687Z,5.70
2018-07-16T04:19:04.204Z,5.00
2018-07-16T04:21:33.274Z,4.90
2018-07-16T04:24:03.078Z,5.13
2018-07-16T04:26:33.339Z,5.40
2018-07-16T04:29:04.096Z,5.70
2018-07-16T04:31:34.070Z,5.80
2018-07-16T04:34:03.429Z,5.17
2018-07-16T04:36:32.851Z,5.40
2018-07-16T04:39:02.769Z,4.87
2018-07-16T04:41:34.322Z,5.40
2018-07-16T04:44:03.496Z,5.60
2018-07-16T04:46:32.931Z,4.63
2018-07-16T04:49:08.426Z,5.23
2018-07-16T04:51:37.950Z,5.77
2018-07-16T04:54:08.860Z,5.20
2018-07-16T04:56:38.753Z,4.77
2018-07-16T04:59:08.533Z,5.47
2018-07-16T05:01:40.360Z,4.70
2018-07-16T05:04:13.806Z,5.47
2018-07-16T05:06:44.171Z,4.80
2018-07-16T05:09:17.088Z,5.00
2018-07-16T05:11:46.803Z,5.77
2018-07-16T05:14:16.893Z,5.13
2018-07-16T05:16:47.051Z,5.90
2018-07-16T05:19:17.492Z,5.43
2018-07-16T05:21:46.546Z,5.70
2018-07-16T05:24:22.430Z,6.73
2018-07-16T05:26:52.621Z,6.60
2018-07-16T05:29:22.728Z,7.10
2018-07-16T05:31:54.922Z,4.70
2018-07-16T05:34:24.939Z,5.63
2018-07-16T05:36:57.526Z,6.67
2018-07-16T05:39:27.374Z,5.20
2018-07-16T05:41:55.994Z,5.60
2018-07-16T05:44:24.559Z,5.30
2018-07-16T05:46:54.915Z,5.77
2018-07-16T05:49:23.618Z,5.67
2018-07-16T05:51:54.277Z,4.97
2018-07-16T05:54:25.297Z,4.97
2018-07-16T05:56:54.903Z,5.30
2018-07-16T05:59:24.282Z,5.60
2018-07-16T06:01:54.771Z,4.43
2018-07-16T06:04:24.090Z,4.80
2018-07-16T06:06:54.190Z,4.50
2018-07-16T06:09:25.051Z,4.73
2018-07-16T06:11:56.270Z,3.93
2018-07-16T06:14:25.523Z,4.30
2018-07-16T06:16:54.859Z,4.30
2018-07-16T06:19:24.497Z,4.60
2018-07-16T06:21:56.044Z,4.87
2018-07-16T06:24:27.519Z,4.50
2018-07-16T06:27:00.702Z,4.13
2018-07-16T06:29:30.750Z,3.90
2018-07-16T06:32:01.101Z,4.07
2018-07-16T06:34:35.754Z,4.37
2018-07-16T06:37:07.268Z,4.50
2018-07-16T06:39:36.693Z,4.23
2018-07-16T06:42:07.114Z,4.30
2018-07-16T06:44:37.172Z,4.70
2018-07-16T06:47:06.499Z,4.20
2018-07-16T06:49:36.535Z,5.03
2018-07-16T06:52:10.484Z,4.00
2018-07-16T06:54:40.644Z,3.43
2018-07-16T06:57:10.047Z,4.73
2018-07-16T06:59:39.081Z,4.40
2018-07-16T07:02:12.973Z,4.20
2018-07-16T07:04:43.757Z,4.53
2018-07-16T07:07:13.145Z,3.63
2018-07-16T07:09:42.587Z,4.00
2018-07-16T07:12:12.242Z,4.37
2018-07-16T07:14:41.993Z,4.40
2018-07-16T07:17:13.643Z,4.30
2018-07-16T07:19:42.549Z,4.43
2018-07-16T07:22:14.327Z,4.80
2018-07-16T07:24:45.233Z,3.50
2018-07-16T07:27:15.282Z,3.90
2018-07-16T07:29:45.154Z,3.30
2018-07-16T07:32:14.566Z,3.50
2018-07-16T07:34:47.422Z,3.30
2018-07-16T07:37:17.745Z,2.97
2018-07-16T07:39:48.091Z,3.40
2018-07-16T07:42:19.569Z,2.90
2018-07-16T07:44:50.994Z,2.90
2018-07-16T07:47:21.050Z,3.70
2018-07-16T07:49:50.708Z,3.37
2018-07-16T07:52:23.205Z,3.20
2018-07-16T07:54:55.032Z,3.07
2018-07-16T07:57:24.741Z,2.80
2018-07-16T07:59:56.861Z,2.47
2018-07-16T08:02:28.751Z,2.90
2018-07-16T08:04:57.930Z,2.43
